sensor_id;sensor_type;location;lat;lon;timestamp;pressure;altitude;pressure_sealevel;temperature;humidity
38780;BME280;29273;49.962;9.768;2022-07-29T00:01:36;99650.13;;;23.55;30.61
38780;BME280;29273;49.962;9.768;2022-07-29T00:04:02;99643.91;;;23.55;30.99
38780;BME280;29273;49.962;9.768;2022-07-29T00:06:27;99643.13;;;23.54;30.39
38780;BME280;29273;49.962;9.768;2022-07-29T00:08:53;99643.13;;;23.54;31.04
38780;BME280;29273;49.962;9.768;2022-07-29T00:11:18;99636.13;;;23.53;31.05
38780;BME280;29273;49.962;9.768;2022-07-29T00:13:43;99643.41;;;23.53;31.05
38780;BME280;29273;49.962;9.768;2022-07-29T00:16:09;99646.09;;;23.53;30.86
38780;BME280;29273;49.962;9.768;2022-07-29T00:18:34;99650.44;;;23.54;31.55
38780;BME280;29273;49.962;9.768;2022-07-29T00:21:00;99641.53;;;23.53;30.87
38780;BME280;29273;49.962;9.768;2022-07-29T00:23:25;99648.22;;;23.56;31.51
38780;BME280;29273;49.962;9.768;2022-07-29T00:25:51;99638.22;;;23.56;31.39
38780;BME280;29273;49.962;9.768;2022-07-29T00:28:16;99630.94;;;23.57;32.16
38780;BME280;29273;49.962;9.768;2022-07-29T00:30:42;99630.63;;;23.58;32.10
38780;BME280;29273;49.962;9.768;2022-07-29T00:33:09;99634.94;;;23.59;31.49
38780;BME280;29273;49.962;9.768;2022-07-29T00:35:34;99627.94;;;23.58;31.57
38780;BME280;29273;49.962;9.768;2022-07-29T00:38:13;99635.16;;;23.63;31.43
38780;BME280;29273;49.962;9.768;2022-07-29T00:40:40;99626.81;;;23.59;32.36
38780;BME280;29273;49.962;9.768;2022-07-29T00:43:06;99628.22;;;23.57;32.13
38780;BME280;29273;49.962;9.768;2022-07-29T00:45:32;99626.91;;;23.54;32.02
38780;BME280;29273;49.962;9.768;2022-07-29T00:47:57;99625.59;;;23.52;31.70
38780;BME280;29273;49.962;9.768;2022-07-29T00:50:23;99627.75;;;23.50;32.58
38780;BME280;29273;49.962;9.768;2022-07-29T00:52:50;99622.66;;;23.48;33.18
38780;BME280;29273;49.962;9.768;2022-07-29T00:55:16;99621.94;;;23.42;34.00
38780;BME280;29273;49.962;9.768;2022-07-29T00:57:43;99617.94;;;23.40;33.14
38780;BME280;29273;49.962;9.768;2022-07-29T01:00:11;99616.31;;;23.39;32.50
38780;BME280;29273;49.962;9.768;2022-07-29T01:02:38;99612.06;;;23.33;32.49
38780;BME280;29273;49.962;9.768;2022-07-29T01:05:04;99618.59;;;23.32;33.37
38780;BME280;29273;49.962;9.768;2022-07-29T01:07:32;99614.53;;;23.29;32.92
38780;BME280;29273;49.962;9.768;2022-07-29T01:09:59;99617.03;;;23.25;32.69
38780;BME280;29273;49.962;9.768;2022-07-29T01:12:27;99619.72;;;23.25;32.90
38780;BME280;29273;49.962;9.768;2022-07-29T01:14:55;99617.81;;;23.26;32.88
38780;BME280;29273;49.962;9.768;2022-07-29T01:17:28;99618.66;;;23.26;32.94
38780;BME280;29273;49.962;9.768;2022-07-29T01:20:02;99613.81;;;23.23;33.08
38780;BME280;29273;49.962;9.768;2022-07-29T01:30:25;99622.34;;;23.12;33.41
38780;BME280;29273;49.962;9.768;2022-07-29T01:32:59;99614.47;;;23.15;33.20
38780;BME280;29273;49.962;9.768;2022-07-29T01:35:30;99614.25;;;23.12;33.42
38780;BME280;29273;49.962;9.768;2022-07-29T01:38:13;99614.28;;;23.06;33.01
38780;BME280;29273;49.962;9.768;2022-07-29T01:40:47;99612.66;;;23.05;33.32
38780;BME280;29273;49.962;9.768;2022-07-29T01:43:18;99613.53;;;23.01;33.88
38780;BME280;29273;49.962;9.768;2022-07-29T01:45:53;99605.19;;;22.97;33.32
38780;BME280;29273;49.962;9.768;2022-07-29T01:48:23;99604.47;;;22.91;34.00
38780;BME280;29273;49.962;9.768;2022-07-29T01:50:52;99609.06;;;22.91;34.10
38780;BME280;29273;49.962;9.768;2022-07-29T01:53:30;99601.53;;;22.88;33.35
38780;BME280;29273;49.962;9.768;2022-07-29T01:55:59;99592.69;;;22.82;33.75
38780;BME280;29273;49.962;9.768;2022-07-29T01:58:28;99598.16;;;22.77;33.85
38780;BME280;29273;49.962;9.768;2022-07-29T02:00:57;99607.63;;;22.75;33.72
38780;BME280;29273;49.962;9.768;2022-07-29T02:03:24;99600.69;;;22.68;34.72
38780;BME280;29273;49.962;9.768;2022-07-29T02:05:51;99595.84;;;22.65;34.76
38780;BME280;29273;49.962;9.768;2022-07-29T02:08:19;99601.03;;;22.62;34.31
38780;BME280;29273;49.962;9.768;2022-07-29T02:10:45;99599.19;;;22.57;34.39
38780;BME280;29273;49.962;9.768;2022-07-29T02:13:13;99591.38;;;22.56;34.08
38780;BME280;29273;49.962;9.768;2022-07-29T02:15:42;99596.25;;;22.53;34.15
38780;BME280;29273;49.962;9.768;2022-07-29T02:18:10;99593.03;;;22.51;34.25
38780;BME280;29273;49.962;9.768;2022-07-29T02:20:37;99594.97;;;22.46;34.05
38780;BME280;29273;49.962;9.768;2022-07-29T02:23:03;99589.34;;;22.42;34.44
38780;BME280;29273;49.962;9.768;2022-07-29T02:25:29;99596.66;;;22.42;34.64
38780;BME280;29273;49.962;9.768;2022-07-29T02:27:55;99595.31;;;22.39;34.81
38780;BME280;29273;49.962;9.768;2022-07-29T02:30:22;99586.72;;;22.37;34.64
38780;BME280;29273;49.962;9.768;2022-07-29T02:32:50;99595.59;;;22.38;34.28
38780;BME280;29273;49.962;9.768;2022-07-29T02:35:18;99595.88;;;22.36;34.52
38780;BME280;29273;49.962;9.768;2022-07-29T02:37:45;99599.16;;;22.33;34.57
38780;BME280;29273;49.962;9.768;2022-07-29T02:40:34;99597.78;;;22.35;34.29
38780;BME280;29273;49.962;9.768;2022-07-29T02:43:02;99598.06;;;22.34;34.40
38780;BME280;29273;49.962;9.768;2022-07-29T02:45:29;99597.84;;;22.30;35.52
38780;BME280;29273;49.962;9.768;2022-07-29T02:47:56;99604.53;;;22.33;34.66
38780;BME280;29273;49.962;9.768;2022-07-29T02:50:30;99594.56;;;22.33;34.24
38780;BME280;29273;49.962;9.768;2022-07-29T02:55:43;99597.31;;;22.28;34.22
38780;BME280;29273;49.962;9.768;2022-07-29T02:58:15;99597.63;;;22.22;34.94
38780;BME280;29273;49.962;9.768;2022-07-29T03:00:46;99601.91;;;22.23;35.06
38780;BME280;29273;49.962;9.768;2022-07-29T03:03:16;99605.41;;;22.23;34.71
38780;BME280;29273;49.962;9.768;2022-07-29T03:05:43;99606.28;;;22.18;35.07
38780;BME280;29273;49.962;9.768;2022-07-29T03:08:10;99601.97;;;22.17;35.29
38780;BME280;29273;49.962;9.768;2022-07-29T03:10:38;99600.34;;;22.16;34.78
38780;BME280;29273;49.962;9.768;2022-07-29T03:13:05;99599.59;;;22.11;34.92
38780;BME280;29273;49.962;9.768;2022-07-29T03:15:31;99600.16;;;22.08;35.44
38780;BME280;29273;49.962;9.768;2022-07-29T03:17:57;99607.22;;;22.04;35.00
38780;BME280;29273;49.962;9.768;2022-07-29T03:20:24;99599.19;;;21.98;35.45
38780;BME280;29273;49.962;9.768;2022-07-29T03:22:50;99606.72;;;21.96;35.33
38780;BME280;29273;49.962;9.768;2022-07-29T03:25:18;99605.13;;;21.95;35.71
38780;BME280;29273;49.962;9.768;2022-07-29T03:27:45;99607.31;;;21.88;36.34
38780;BME280;29273;49.962;9.768;2022-07-29T03:30:12;99596.84;;;21.87;35.64
38780;BME280;29273;49.962;9.768;2022-07-29T03:32:39;99596.84;;;21.81;35.74
38780;BME280;29273;49.962;9.768;2022-07-29T03:35:05;99601.72;;;21.79;35.59
38780;BME280;29273;49.962;9.768;2022-07-29T03:37:31;99605.81;;;21.77;36.40
38780;BME280;29273;49.962;9.768;2022-07-29T03:39:57;99602.28;;;21.76;36.56
38780;BME280;29273;49.962;9.768;2022-07-29T03:42:25;99600.16;;;21.78;36.30
38780;BME280;29273;49.962;9.768;2022-07-29T03:44:52;99596.38;;;21.74;37.13
38780;BME280;29273;49.962;9.768;2022-07-29T03:47:23;99598.25;;;21.79;36.56
38780;BME280;29273;49.962;9.768;2022-07-29T03:49:52;99599.88;;;21.75;37.43
38780;BME280;29273;49.962;9.768;2022-07-29T03:52:20;99599.88;;;21.75;37.87
38780;BME280;29273;49.962;9.768;2022-07-29T03:54:46;99599.88;;;21.75;38.17
38780;BME280;29273;49.962;9.768;2022-07-29T03:57:12;99591.50;;;21.76;38.68
38780;BME280;29273;49.962;9.768;2022-07-29T03:59:39;99594.22;;;21.76;39.41
38780;BME280;29273;49.962;9.768;2022-07-29T04:02:09;99586.38;;;21.80;37.84
38780;BME280;29273;49.962;9.768;2022-07-29T04:04:36;99594.22;;;21.76;38.45
38780;BME280;29273;49.962;9.768;2022-07-29T04:07:02;99598.53;;;21.77;38.83
38780;BME280;29273;49.962;9.768;2022-07-29T04:09:28;99600.94;;;21.79;38.77
38780;BME280;29273;49.962;9.768;2022-07-29T04:11:53;99603.63;;;21.79;39.49
38780;BME280;29273;49.962;9.768;2022-07-29T04:14:19;99611.72;;;21.79;39.24
38780;BME280;29273;49.962;9.768;2022-07-29T04:16:46;99607.66;;;21.81;39.49
38780;BME280;29273;49.962;9.768;2022-07-29T04:19:11;99603.88;;;21.83;40.29
38780;BME280;29273;49.962;9.768;2022-07-29T04:21:41;99601.69;;;21.85;39.78
38780;BME280;29273;49.962;9.768;2022-07-29T04:24:07;99613.31;;;21.85;39.30
38780;BME280;29273;49.962;9.768;2022-07-29T04:26:33;99603.59;;;21.84;39.99
38780;BME280;29273;49.962;9.768;2022-07-29T04:28:59;99606.81;;;21.86;39.03
38780;BME280;29273;49.962;9.768;2022-07-29T04:31:24;99608.44;;;21.87;39.49
38780;BME280;29273;49.962;9.768;2022-07-29T04:33:49;99610.03;;;21.88;39.40
38780;BME280;29273;49.962;9.768;2022-07-29T04:36:15;99611.63;;;21.89;39.32
38780;BME280;29273;49.962;9.768;2022-07-29T04:38:40;99610.28;;;21.92;38.72
38780;BME280;29273;49.962;9.768;2022-07-29T04:41:06;99607.31;;;21.93;39.27
38780;BME280;29273;49.962;9.768;2022-07-29T04:43:34;99603.75;;;21.98;38.70
38780;BME280;29273;49.962;9.768;2022-07-29T04:46:00;99603.75;;;21.98;39.19
38780;BME280;29273;49.962;9.768;2022-07-29T04:48:26;99609.69;;;22.00;39.05
38780;BME280;29273;49.962;9.768;2022-07-29T04:50:51;99602.09;;;22.02;38.96
38780;BME280;29273;49.962;9.768;2022-07-29T04:53:17;99599.13;;;22.04;38.54
38780;BME280;29273;49.962;9.768;2022-07-29T04:55:43;99600.72;;;22.05;38.72
38780;BME280;29273;49.962;9.768;2022-07-29T04:58:08;99595.06;;;22.06;38.27
38780;BME280;29273;49.962;9.768;2022-07-29T05:00:34;99601.25;;;22.07;38.25
38780;BME280;29273;49.962;9.768;2022-07-29T05:02:59;99599.38;;;22.07;38.71
38780;BME280;29273;49.962;9.768;2022-07-29T05:05:25;99596.94;;;22.06;38.94
38780;BME280;29273;49.962;9.768;2022-07-29T05:07:50;99606.94;;;22.05;39.40
38780;BME280;29273;49.962;9.768;2022-07-29T05:10:16;99607.22;;;22.04;39.03
38780;BME280;29273;49.962;9.768;2022-07-29T05:12:41;99603.19;;;22.01;38.80
38780;BME280;29273;49.962;9.768;2022-07-29T05:15:07;99595.09;;;22.01;38.22
38780;BME280;29273;49.962;9.768;2022-07-29T05:17:33;99602.66;;;21.99;38.67
38780;BME280;29273;49.962;9.768;2022-07-29T05:19:58;99594.59;;;21.99;38.63
38780;BME280;29273;49.962;9.768;2022-07-29T05:22:24;99598.34;;;21.98;38.36
38780;BME280;29273;49.962;9.768;2022-07-29T05:24:50;99594.06;;;21.97;39.29
38780;BME280;29273;49.962;9.768;2022-07-29T05:27:15;99600.53;;;21.96;39.13
38780;BME280;29273;49.962;9.768;2022-07-29T05:29:41;99601.63;;;21.95;38.71
38780;BME280;29273;49.962;9.768;2022-07-29T05:32:06;99603.22;;;21.96;37.87
38780;BME280;29273;49.962;9.768;2022-07-29T05:34:32;99602.44;;;21.95;37.41
38780;BME280;29273;49.962;9.768;2022-07-29T05:36:57;99605.94;;;21.96;37.41
38780;BME280;29273;49.962;9.768;2022-07-29T05:39:24;99607.25;;;21.98;37.84
38780;BME280;29273;49.962;9.768;2022-07-29T05:41:49;99607.00;;;22.00;38.17
38780;BME280;29273;49.962;9.768;2022-07-29T05:44:15;99607.50;;;22.02;37.98
38780;BME280;29273;49.962;9.768;2022-07-29T05:46:40;99616.91;;;22.05;38.74
38780;BME280;29273;49.962;9.768;2022-07-29T05:49:06;99604.75;;;22.07;39.12
38780;BME280;29273;49.962;9.768;2022-07-29T05:51:35;99605.75;;;22.16;37.99
38780;BME280;29273;49.962;9.768;2022-07-29T05:54:01;99607.91;;;22.14;38.63
38780;BME280;29273;49.962;9.768;2022-07-29T05:56:27;99602.25;;;22.16;37.64
38780;BME280;29273;49.962;9.768;2022-07-29T05:58:52;99610.84;;;22.18;36.44
38780;BME280;29273;49.962;9.768;2022-07-29T06:01:18;99609.22;;;22.22;36.86
38780;BME280;29273;49.962;9.768;2022-07-29T06:03:43;99612.16;;;22.26;36.36
38780;BME280;29273;49.962;9.768;2022-07-29T06:06:09;99608.91;;;22.29;36.76
38780;BME280;29273;49.962;9.768;2022-07-29T06:08:35;99612.63;;;22.33;36.44
38780;BME280;29273;49.962;9.768;2022-07-29T06:11:02;99610.19;;;22.37;36.52
38780;BME280;29273;49.962;9.768;2022-07-29T06:13:28;99615.81;;;22.40;36.50
38780;BME280;29273;49.962;9.768;2022-07-29T06:15:54;99611.72;;;22.43;36.54
38780;BME280;29273;49.962;9.768;2022-07-29T06:18:19;99612.78;;;22.47;36.20
38780;BME280;29273;49.962;9.768;2022-07-29T06:20:46;99615.16;;;22.53;36.45
38780;BME280;29273;49.962;9.768;2022-07-29T06:23:11;99613.19;;;22.59;36.52
38780;BME280;29273;49.962;9.768;2022-07-29T06:25:39;99609.28;;;22.70;36.42
38780;BME280;29273;49.962;9.768;2022-07-29T06:28:05;99616.53;;;22.75;36.92
38780;BME280;29273;49.962;9.768;2022-07-29T06:30:30;99608.88;;;22.82;36.53
38780;BME280;29273;49.962;9.768;2022-07-29T06:32:56;99602.84;;;22.90;36.57
38780;BME280;29273;49.962;9.768;2022-07-29T06:35:21;99598.41;;;23.00;36.78
38780;BME280;29273;49.962;9.768;2022-07-29T06:37:47;99597.50;;;23.09;36.50
38780;BME280;29273;49.962;9.768;2022-07-29T06:40:12;99604.97;;;23.18;35.83
38780;BME280;29273;49.962;9.768;2022-07-29T06:42:56;99607.84;;;23.26;36.11
38780;BME280;29273;49.962;9.768;2022-07-29T06:45:22;99609.56;;;23.36;35.65
38780;BME280;29273;49.962;9.768;2022-07-29T06:47:47;99603.53;;;23.44;35.23
38780;BME280;29273;49.962;9.768;2022-07-29T06:50:13;99606.38;;;23.53;34.67
38780;BME280;29273;49.962;9.768;2022-07-29T06:52:39;99596.78;;;23.61;35.25
38780;BME280;29273;49.962;9.768;2022-07-29T06:55:06;99607.97;;;23.73;34.65
38780;BME280;29273;49.962;9.768;2022-07-29T06:57:32;99597.31;;;23.82;34.62
38780;BME280;29273;49.962;9.768;2022-07-29T06:59:57;99597.44;;;23.91;34.28
38780;BME280;29273;49.962;9.768;2022-07-29T07:02:23;99600.47;;;24.03;34.35
38780;BME280;29273;49.962;9.768;2022-07-29T07:04:48;99600.31;;;24.13;34.41
38780;BME280;29273;49.962;9.768;2022-07-29T07:07:14;99596.66;;;24.23;33.88
38780;BME280;29273;49.962;9.768;2022-07-29T07:09:39;99589.94;;;24.34;33.75
38780;BME280;29273;49.962;9.768;2022-07-29T07:12:05;99597.56;;;24.46;34.03
38780;BME280;29273;49.962;9.768;2022-07-29T07:14:31;99599.81;;;24.58;33.41
38780;BME280;29273;49.962;9.768;2022-07-29T07:16:57;99596.38;;;24.66;33.40
38780;BME280;29273;49.962;9.768;2022-07-29T07:19:22;99603.50;;;24.76;33.48
38780;BME280;29273;49.962;9.768;2022-07-29T07:21:48;99602.81;;;24.84;33.51
38780;BME280;29273;49.962;9.768;2022-07-29T07:24:13;99601.31;;;24.92;33.42
38780;BME280;29273;49.962;9.768;2022-07-29T07:26:38;99596.28;;;24.99;33.09
38780;BME280;29273;49.962;9.768;2022-07-29T07:29:05;99597.50;;;25.07;33.32
38780;BME280;29273;49.962;9.768;2022-07-29T07:31:31;99606.00;;;25.14;33.09
38780;BME280;29273;49.962;9.768;2022-07-29T07:33:56;99601.59;;;25.18;32.27
38780;BME280;29273;49.962;9.768;2022-07-29T07:36:22;99599.56;;;25.24;32.73
38780;BME280;29273;49.962;9.768;2022-07-29T07:38:48;99600.56;;;25.28;33.15
38780;BME280;29273;49.962;9.768;2022-07-29T07:41:13;99602.38;;;25.33;33.14
38780;BME280;29273;49.962;9.768;2022-07-29T07:43:39;99597.13;;;25.36;32.69
38780;BME280;29273;49.962;9.768;2022-07-29T07:46:04;99601.66;;;25.41;32.50
38780;BME280;29273;49.962;9.768;2022-07-29T07:48:30;99606.47;;;25.44;32.36
38780;BME280;29273;49.962;9.768;2022-07-29T07:50:55;99598.50;;;25.47;32.32
38780;BME280;29273;49.962;9.768;2022-07-29T07:53:21;99607.66;;;25.52;32.68
38780;BME280;29273;49.962;9.768;2022-07-29T07:55:47;99608.94;;;25.54;32.83
38780;BME280;29273;49.962;9.768;2022-07-29T07:58:12;99607.03;;;25.55;33.60
38780;BME280;29273;49.962;9.768;2022-07-29T08:00:38;99609.44;;;25.56;34.96
38780;BME280;29273;49.962;9.768;2022-07-29T08:03:03;99612.47;;;25.55;35.21
38780;BME280;29273;49.962;9.768;2022-07-29T08:05:29;99610.84;;;25.54;35.70
38780;BME280;29273;49.962;9.768;2022-07-29T08:07:54;99609.25;;;25.53;36.06
38780;BME280;29273;49.962;9.768;2022-07-29T08:10:20;99608.75;;;25.51;35.44
38780;BME280;29273;49.962;9.768;2022-07-29T08:13:07;99610.38;;;25.52;34.96
38780;BME280;29273;49.962;9.768;2022-07-29T08:15:33;99612.69;;;25.44;37.67
38780;BME280;29273;49.962;9.768;2022-07-29T08:17:59;99621.94;;;25.43;39.65
38780;BME280;29273;49.962;9.768;2022-07-29T08:20:25;99615.50;;;25.39;38.72
38780;BME280;29273;49.962;9.768;2022-07-29T08:22:51;99613.91;;;25.38;39.38
38780;BME280;29273;49.962;9.768;2022-07-29T08:25:16;99613.41;;;25.36;37.93
38780;BME280;29273;49.962;9.768;2022-07-29T08:27:46;99620.44;;;25.37;38.16
38780;BME280;29273;49.962;9.768;2022-07-29T08:30:12;99626.94;;;25.36;39.74
38780;BME280;29273;49.962;9.768;2022-07-29T08:32:38;99622.66;;;25.35;39.99
38780;BME280;29273;49.962;9.768;2022-07-29T08:35:03;99620.44;;;25.37;40.96
38780;BME280;29273;49.962;9.768;2022-07-29T08:37:29;99627.78;;;25.37;41.23
38780;BME280;29273;49.962;9.768;2022-07-29T08:39:54;99627.47;;;25.38;40.68
38780;BME280;29273;49.962;9.768;2022-07-29T08:42:21;99635.78;;;25.42;39.76
38780;BME280;29273;49.962;9.768;2022-07-29T08:44:46;99630.06;;;25.43;40.00
38780;BME280;29273;49.962;9.768;2022-07-29T08:47:15;99637.19;;;25.53;39.22
38780;BME280;29273;49.962;9.768;2022-07-29T08:49:40;99640.50;;;25.50;38.80
38780;BME280;29273;49.962;9.768;2022-07-29T08:52:06;99635.56;;;25.52;39.30
38780;BME280;29273;49.962;9.768;2022-07-29T08:54:32;99629.03;;;25.53;38.57
38780;BME280;29273;49.962;9.768;2022-07-29T08:56:59;99631.34;;;25.60;38.36
38780;BME280;29273;49.962;9.768;2022-07-29T08:59:26;99634.84;;;25.60;37.88
38780;BME280;29273;49.962;9.768;2022-07-29T09:01:53;99631.03;;;25.61;37.50
38780;BME280;29273;49.962;9.768;2022-07-29T09:04:19;99630.38;;;25.64;36.89
38780;BME280;29273;49.962;9.768;2022-07-29T09:06:47;99637.00;;;25.72;36.26
38780;BME280;29273;49.962;9.768;2022-07-29T09:09:13;99634.00;;;25.74;37.21
38780;BME280;29273;49.962;9.768;2022-07-29T09:11:40;99626.03;;;25.77;36.35
38780;BME280;29273;49.962;9.768;2022-07-29T09:14:05;99630.84;;;25.80;36.28
38780;BME280;29273;49.962;9.768;2022-07-29T09:16:53;99628.19;;;25.89;36.37
38780;BME280;29273;49.962;9.768;2022-07-29T09:19:30;99623.47;;;25.95;36.16
38780;BME280;29273;49.962;9.768;2022-07-29T09:21:58;99628.06;;;25.94;35.42
38780;BME280;29273;49.962;9.768;2022-07-29T09:24:26;99630.19;;;25.97;35.10
38780;BME280;29273;49.962;9.768;2022-07-29T09:26:51;99627.47;;;25.97;35.00
38780;BME280;29273;49.962;9.768;2022-07-29T09:29:22;99631.06;;;26.07;34.96
38780;BME280;29273;49.962;9.768;2022-07-29T09:31:51;99626.25;;;26.03;34.33
38780;BME280;29273;49.962;9.768;2022-07-29T09:34:25;99627.41;;;26.11;34.20
38780;BME280;29273;49.962;9.768;2022-07-29T09:36:51;99633.47;;;26.08;34.70
38780;BME280;29273;49.962;9.768;2022-07-29T09:39:35;99622.66;;;26.17;34.89
38780;BME280;29273;49.962;9.768;2022-07-29T09:42:04;99625.88;;;26.19;35.02
38780;BME280;29273;49.962;9.768;2022-07-29T09:44:46;99618.72;;;26.23;34.93
38780;BME280;29273;49.962;9.768;2022-07-29T09:47:14;99619.81;;;26.22;34.87
38780;BME280;29273;49.962;9.768;2022-07-29T09:49:54;99618.75;;;26.32;34.83
38780;BME280;29273;49.962;9.768;2022-07-29T09:52:21;99617.13;;;26.31;34.29
38780;BME280;29273;49.962;9.768;2022-07-29T09:54:47;99607.59;;;26.33;33.87
38780;BME280;29273;49.962;9.768;2022-07-29T09:57:42;99618.31;;;26.38;34.87
38780;BME280;29273;49.962;9.768;2022-07-29T10:02:39;99619.34;;;26.51;33.96
38780;BME280;29273;49.962;9.768;2022-07-29T10:05:16;99614.25;;;26.58;34.05
38780;BME280;29273;49.962;9.768;2022-07-29T10:07:53;99599.22;;;26.61;34.15
38780;BME280;29273;49.962;9.768;2022-07-29T10:12:58;99606.31;;;26.71;34.78
38780;BME280;29273;49.962;9.768;2022-07-29T10:15:27;99605.22;;;26.72;34.14
38780;BME280;29273;49.962;9.768;2022-07-29T10:17:54;99603.78;;;26.74;33.79
38780;BME280;29273;49.962;9.768;2022-07-29T10:20:21;99606.38;;;26.80;32.93
38780;BME280;29273;49.962;9.768;2022-07-29T10:22:48;99598.69;;;26.82;32.88
38780;BME280;29273;49.962;9.768;2022-07-29T10:25:15;99601.28;;;26.87;33.32
38780;BME280;29273;49.962;9.768;2022-07-29T10:27:42;99600.13;;;26.88;33.09
38780;BME280;29273;49.962;9.768;2022-07-29T10:30:08;99604.94;;;26.91;32.92
38780;BME280;29273;49.962;9.768;2022-07-29T10:33:26;99599.72;;;27.03;34.16
38780;BME280;29273;49.962;9.768;2022-07-29T10:41:56;99591.09;;;27.19;33.79
38780;BME280;29273;49.962;9.768;2022-07-29T10:44:25;99590.16;;;27.23;33.36
38780;BME280;29273;49.962;9.768;2022-07-29T10:46:51;99593.38;;;27.34;33.12
38780;BME280;29273;49.962;9.768;2022-07-29T10:51:55;99580.72;;;27.56;33.41
38780;BME280;29273;49.962;9.768;2022-07-29T10:59:39;99574.16;;;27.74;32.23
38780;BME280;29273;49.962;9.768;2022-07-29T11:07:25;99571.91;;;27.85;31.50
38780;BME280;29273;49.962;9.768;2022-07-29T11:15:05;99565.16;;;27.91;31.60
38780;BME280;29273;49.962;9.768;2022-07-29T11:20:47;99567.41;;;27.98;32.74
38780;BME280;29273;49.962;9.768;2022-07-29T11:23:25;99564.88;;;28.01;32.66
38780;BME280;29273;49.962;9.768;2022-07-29T11:26:16;99560.22;;;28.02;32.35
38780;BME280;29273;49.962;9.768;2022-07-29T11:29:14;99563.88;;;28.06;32.53
38780;BME280;29273;49.962;9.768;2022-07-29T11:31:47;99560.19;;;28.11;31.86
38780;BME280;29273;49.962;9.768;2022-07-29T11:34:30;99557.28;;;28.16;31.93
38780;BME280;29273;49.962;9.768;2022-07-29T11:39:36;99566.41;;;28.20;32.17
38780;BME280;29273;49.962;9.768;2022-07-29T11:47:25;99544.91;;;28.27;31.11
38780;BME280;29273;49.962;9.768;2022-07-29T11:49:51;99545.88;;;28.31;31.48
38780;BME280;29273;49.962;9.768;2022-07-29T11:52:18;99539.91;;;28.38;31.52
38780;BME280;29273;49.962;9.768;2022-07-29T11:54:47;99529.75;;;28.47;31.72
38780;BME280;29273;49.962;9.768;2022-07-29T11:57:15;99535.34;;;28.51;31.29
38780;BME280;29273;49.962;9.768;2022-07-29T11:59:43;99522.38;;;28.56;31.39
38780;BME280;29273;49.962;9.768;2022-07-29T12:02:09;99518.66;;;28.61;31.28
38780;BME280;29273;49.962;9.768;2022-07-29T12:07:16;99527.56;;;28.70;31.46
38780;BME280;29273;49.962;9.768;2022-07-29T12:09:52;99519.63;;;28.86;31.92
38780;BME280;29273;49.962;9.768;2022-07-29T12:12:18;99503.59;;;28.85;30.67
38780;BME280;29273;49.962;9.768;2022-07-29T12:14:44;99501.59;;;28.94;30.09
38780;BME280;29273;49.962;9.768;2022-07-29T12:17:32;99507.78;;;29.03;31.50
38780;BME280;29273;49.962;9.768;2022-07-29T12:20:00;99500.53;;;29.07;30.35
38780;BME280;29273;49.962;9.768;2022-07-29T12:22:27;99497.16;;;29.10;30.70
38780;BME280;29273;49.962;9.768;2022-07-29T12:24:53;99510.28;;;29.17;30.54
38780;BME280;29273;49.962;9.768;2022-07-29T12:27:19;99509.28;;;29.22;30.11
38780;BME280;29273;49.962;9.768;2022-07-29T12:29:55;99513.19;;;29.33;30.61
38780;BME280;29273;49.962;9.768;2022-07-29T12:32:21;99500.88;;;29.27;29.61
38780;BME280;29273;49.962;9.768;2022-07-29T12:34:47;99506.78;;;29.29;29.68
38780;BME280;29273;49.962;9.768;2022-07-29T12:37:13;99507.59;;;29.29;29.62
38780;BME280;29273;49.962;9.768;2022-07-29T12:39:39;99506.00;;;29.28;29.43
38780;BME280;29273;49.962;9.768;2022-07-29T12:42:15;99504.53;;;29.31;29.81
38780;BME280;29273;49.962;9.768;2022-07-29T12:44:48;99502.81;;;29.26;29.79
38780;BME280;29273;49.962;9.768;2022-07-29T12:47:14;99497.44;;;29.18;29.50
38780;BME280;29273;49.962;9.768;2022-07-29T12:49:40;99494.53;;;29.14;29.77
38780;BME280;29273;49.962;9.768;2022-07-29T12:52:29;99493.44;;;29.15;30.35
38780;BME280;29273;49.962;9.768;2022-07-29T12:54:55;99494.75;;;29.09;29.74
38780;BME280;29273;49.962;9.768;2022-07-29T12:57:20;99492.03;;;29.09;30.28
38780;BME280;29273;49.962;9.768;2022-07-29T13:00:10;99484.91;;;29.16;30.86
38780;BME280;29273;49.962;9.768;2022-07-29T13:02:37;99486.69;;;29.12;30.61
38780;BME280;29273;49.962;9.768;2022-07-29T13:05:04;99487.19;;;29.14;30.24
38780;BME280;29273;49.962;9.768;2022-07-29T13:07:32;99488.13;;;29.19;30.23
38780;BME280;29273;49.962;9.768;2022-07-29T13:13:03;99486.78;;;29.25;30.45
38780;BME280;29273;49.962;9.768;2022-07-29T13:15:30;99486.78;;;29.25;30.00
38780;BME280;29273;49.962;9.768;2022-07-29T13:17:55;99487.03;;;29.32;30.15
38780;BME280;29273;49.962;9.768;2022-07-29T13:20:24;99489.34;;;29.42;30.54
38780;BME280;29273;49.962;9.768;2022-07-29T13:22:50;99484.72;;;29.43;29.87
38780;BME280;29273;49.962;9.768;2022-07-29T13:25:24;99480.06;;;29.56;30.30
38780;BME280;29273;49.962;9.768;2022-07-29T13:27:50;99485.75;;;29.50;29.96
38780;BME280;29273;49.962;9.768;2022-07-29T13:30:15;99477.22;;;29.52;29.33
38780;BME280;29273;49.962;9.768;2022-07-29T13:32:41;99480.41;;;29.54;29.70
38780;BME280;29273;49.962;9.768;2022-07-29T13:35:07;99472.69;;;29.56;29.79
38780;BME280;29273;49.962;9.768;2022-07-29T13:37:34;99483.72;;;29.60;29.77
38780;BME280;29273;49.962;9.768;2022-07-29T13:40:04;99479.84;;;29.61;29.64
38780;BME280;29273;49.962;9.768;2022-07-29T13:42:30;99488.16;;;29.64;29.54
38780;BME280;29273;49.962;9.768;2022-07-29T13:44:56;99473.06;;;29.67;29.69
38780;BME280;29273;49.962;9.768;2022-07-29T13:47:22;99477.38;;;29.68;29.62
38780;BME280;29273;49.962;9.768;2022-07-29T13:49:48;99470.44;;;29.70;29.93
38780;BME280;29273;49.962;9.768;2022-07-29T13:52:14;99466.59;;;29.71;29.78
38780;BME280;29273;49.962;9.768;2022-07-29T13:54:40;99465.44;;;29.73;29.47
38780;BME280;29273;49.962;9.768;2022-07-29T13:57:06;99465.78;;;29.71;29.48
38780;BME280;29273;49.962;9.768;2022-07-29T13:59:32;99469.66;;;29.70;29.81
38780;BME280;29273;49.962;9.768;2022-07-29T14:01:58;99465.31;;;29.69;29.85